Terminal Aerodrome Forecast
Issued by NWS Blacksburg, VA

Current Version | Previous Version | Text Only | Print | Product List | Glossary Off
Versions: 1 2 3 4 5 6 7 8 9 10 11 12 13 14 15 16 17 18 19 20 21 22 23 24 25 26 27 28 29 30 31 32 33 34 35 36 37 38 39 40 41 42

000
FTUS41 KRNK 281721
TAFBLF
TAF
KBLF 281721Z 2818/2918 24003KT P6SM VCTS SCT035 BKN040CB
     FM290200 VRB03KT 4SM BR VCSH SCT004 BKN045
     FM290800 VRB03KT 3SM BR SCT003 BKN070
      TEMPO 2908/2912 1/4SM FG VV003
     FM291400 25003KT 4SM BR SCT007 OVC015
     FM291600 26007KT P6SM SCT015 BKN035=

USA.gov is the U.S. government's official web portal to all federal, state and local government web resources and services.